createdAt,value
2022-09-15T00:00:40.218Z,75.31
2022-09-15T00:02:13.245Z,75.32
2022-09-15T00:03:45.493Z,75.07
2022-09-15T00:05:18.530Z,75.47
2022-09-15T00:06:50.515Z,75.07
2022-09-15T00:08:23.330Z,75.24
2022-09-15T00:09:55.349Z,75.39
2022-09-15T00:11:31.845Z,75.40
2022-09-15T00:13:03.779Z,75.57
2022-09-15T00:14:35.857Z,75.70
2022-09-15T00:16:08.877Z,75.53
2022-09-15T00:17:42.833Z,75.48
2022-09-15T00:19:14.909Z,75.30
2022-09-15T00:20:46.982Z,75.48
2022-09-15T00:22:21.538Z,75.29
2022-09-15T00:23:56.371Z,75.47
2022-09-15T00:25:29.085Z,75.40
2022-09-15T00:27:01.058Z,75.47
2022-09-15T00:28:33.269Z,75.37
2022-09-15T00:30:06.245Z,75.05
2022-09-15T00:31:38.321Z,74.90
2022-09-15T00:33:11.306Z,74.87
2022-09-15T00:34:43.378Z,74.97
2022-09-15T00:36:16.484Z,74.69
2022-09-15T00:37:48.500Z,75.09
2022-09-15T00:39:20.829Z,75.00
2022-09-15T00:40:57.481Z,75.07
2022-09-15T00:42:29.546Z,74.84
2022-09-15T00:44:04.830Z,74.99
2022-09-15T00:45:37.612Z,74.79
2022-09-15T00:47:19.269Z,74.86
2022-09-15T00:49:05.137Z,74.76
2022-09-15T00:50:38.179Z,75.09
2022-09-15T00:52:21.467Z,75.31
2022-09-15T00:53:53.907Z,75.92
2022-09-15T00:55:34.679Z,76.08
2022-09-15T00:57:16.308Z,76.56
2022-09-15T00:59:01.655Z,76.38
2022-09-15T01:00:35.316Z,76.47
2022-09-15T01:02:20.524Z,76.69
2022-09-15T01:03:52.789Z,76.56
2022-09-15T01:05:28.077Z,76.41
2022-09-15T01:07:04.155Z,76.09
2022-09-15T01:09:02.172Z,75.93
2022-09-15T01:10:39.320Z,75.95
2022-09-15T01:12:11.247Z,76.32
2022-09-15T01:13:44.651Z,76.16
2022-09-15T01:15:16.697Z,75.95
2022-09-15T01:17:07.396Z,76.12
2022-09-15T01:19:05.607Z,76.13
2022-09-15T01:21:06.775Z,75.87
2022-09-15T01:22:42.096Z,76.04
2022-09-15T01:24:30.616Z,75.71
2022-09-15T01:26:34.261Z,75.91
2022-09-15T01:28:30.758Z,76.04
2022-09-15T01:30:15.830Z,76.34
2022-09-15T01:32:12.518Z,76.48
2022-09-15T01:33:50.092Z,76.72
2022-09-15T01:35:43.454Z,76.69
2022-09-15T01:37:20.720Z,77.08
2022-09-15T01:39:01.327Z,77.10
2022-09-15T01:40:40.080Z,77.04
2022-09-15T01:42:14.380Z,77.01
2022-09-15T01:44:06.285Z,76.82
2022-09-15T01:45:39.805Z,77.06
2022-09-15T01:47:14.424Z,77.22
2022-09-15T01:48:47.912Z,77.16
2022-09-15T01:50:26.535Z,77.16
2022-09-15T01:51:58.552Z,77.08
2022-09-15T01:53:30.714Z,76.90
2022-09-15T01:55:08.213Z,76.91
2022-09-15T01:56:42.236Z,76.80
2022-09-15T01:58:14.317Z,76.74
2022-09-15T01:59:52.051Z,76.74
2022-09-15T02:01:44.050Z,76.69
2022-09-15T02:03:33.459Z,76.78
2022-09-15T02:05:21.016Z,76.86
2022-09-15T02:06:56.734Z,76.89
2022-09-15T02:08:45.549Z,76.97
2022-09-15T02:10:24.681Z,77.15
2022-09-15T02:12:20.249Z,77.17
2022-09-15T02:14:00.180Z,77.13
2022-09-15T02:15:48.722Z,77.23
2022-09-15T02:17:21.542Z,77.83
2022-09-15T02:19:11.845Z,78.01
2022-09-15T02:20:49.643Z,78.14
2022-09-15T02:22:30.720Z,78.19
2022-09-15T02:24:11.305Z,78.13
2022-09-15T02:25:52.162Z,77.98
2022-09-15T02:27:25.837Z,78.05
2022-09-15T02:28:58.555Z,78.00
2022-09-15T02:30:32.230Z,77.85
2022-09-15T02:32:07.401Z,78.05
2022-09-15T02:33:46.023Z,77.84
2022-09-15T02:35:18.453Z,78.19
2022-09-15T02:36:53.433Z,78.30
2022-09-15T02:38:28.992Z,78.19
2022-09-15T02:40:01.923Z,78.17
2022-09-15T02:41:35.687Z,78.12
2022-09-15T02:43:14.125Z,77.83
2022-09-15T02:44:46.082Z,77.59
2022-09-15T02:46:20.120Z,77.52
2022-09-15T02:47:52.150Z,77.33
2022-09-15T02:49:24.167Z,77.33
2022-09-15T02:50:56.190Z,77.31
2022-09-15T02:52:28.139Z,77.17
2022-09-15T02:54:00.227Z,77.15
2022-09-15T02:55:32.192Z,76.94
2022-09-15T02:57:04.419Z,76.77
2022-09-15T02:58:36.716Z,76.71
2022-09-15T03:00:16.400Z,76.65
2022-09-15T03:01:48.446Z,76.79
2022-09-15T03:03:22.292Z,76.86
2022-09-15T03:04:54.349Z,77.04
2022-09-15T03:06:28.282Z,76.93
2022-09-15T03:08:00.225Z,77.00
2022-09-15T03:09:32.226Z,76.81
2022-09-15T03:11:07.434Z,76.63
2022-09-15T03:12:44.827Z,76.26
2022-09-15T03:14:16.848Z,76.39
2022-09-15T03:15:48.844Z,76.70
2022-09-15T03:17:21.024Z,76.64
2022-09-15T03:18:55.834Z,76.80
2022-09-15T03:20:28.945Z,77.04
2022-09-15T03:22:00.989Z,76.74
2022-09-15T03:23:35.518Z,76.79
2022-09-15T03:25:08.403Z,76.82
2022-09-15T03:26:40.362Z,76.88
2022-09-15T03:28:12.413Z,76.90
2022-09-15T03:29:44.502Z,77.15
2022-09-15T03:31:16.658Z,77.28
2022-09-15T03:32:49.095Z,77.32
2022-09-15T03:34:21.154Z,77.36
2022-09-15T03:35:53.586Z,77.62
2022-09-15T03:37:26.024Z,77.79
2022-09-15T03:38:58.718Z,77.79
2022-09-15T03:40:31.120Z,77.73
2022-09-15T03:42:03.240Z,77.57
2022-09-15T03:43:35.865Z,77.52
2022-09-15T03:45:08.255Z,77.40
2022-09-15T03:46:40.234Z,77.28
2022-09-15T03:48:12.226Z,77.40
2022-09-15T03:49:44.255Z,77.10
2022-09-15T03:51:16.240Z,77.00
2022-09-15T03:52:48.274Z,76.88
2022-09-15T03:54:20.260Z,76.82
2022-09-15T03:57:25.279Z,76.90
2022-09-15T03:58:57.837Z,76.73
2022-09-15T04:00:29.960Z,76.83
2022-09-15T04:02:02.155Z,76.55
2022-09-15T04:03:37.460Z,76.60
2022-09-15T04:05:13.716Z,76.36
2022-09-15T04:06:45.546Z,76.00
2022-09-15T04:08:17.564Z,75.88
2022-09-15T04:09:50.684Z,75.37
2022-09-15T04:11:23.206Z,75.17
2022-09-15T04:12:55.344Z,74.96
2022-09-15T04:14:28.277Z,74.44
2022-09-15T04:16:05.234Z,74.74
2022-09-15T04:17:37.610Z,74.53
2022-09-15T04:19:09.782Z,75.19
2022-09-15T04:20:41.894Z,75.48
2022-09-15T04:22:17.661Z,75.91
2022-09-15T04:23:50.856Z,76.03
2022-09-15T04:26:56.909Z,75.79
2022-09-15T04:28:31.903Z,75.78
2022-09-15T04:30:04.937Z,75.62
2022-09-15T04:31:37.272Z,75.40
2022-09-15T04:33:09.696Z,75.38
2022-09-15T04:34:41.950Z,74.96
2022-09-15T04:36:16.897Z,74.76
2022-09-15T04:37:49.043Z,74.47
2022-09-15T04:39:21.194Z,74.84
2022-09-15T04:40:53.440Z,74.97
2022-09-15T04:42:26.445Z,75.30
2022-09-15T04:43:58.837Z,74.95
2022-09-15T04:45:31.301Z,74.75
2022-09-15T04:47:03.647Z,74.57
2022-09-15T04:48:36.022Z,74.41
2022-09-15T04:50:08.355Z,74.82
2022-09-15T04:51:40.790Z,74.56
2022-09-15T04:53:13.199Z,74.56
2022-09-15T04:54:45.891Z,74.50
2022-09-15T04:56:22.183Z,74.73
2022-09-15T04:57:55.705Z,74.56
2022-09-15T05:01:14.107Z,74.80
2022-09-15T05:02:46.855Z,75.35
2022-09-15T05:04:19.122Z,75.04
2022-09-15T05:05:51.349Z,75.04
2022-09-15T05:07:23.580Z,75.58
2022-09-15T05:08:57.813Z,75.63
2022-09-15T05:10:30.177Z,75.96
2022-09-15T05:12:02.546Z,76.04
2022-09-15T05:13:35.593Z,76.15
2022-09-15T05:15:08.723Z,75.91
2022-09-15T05:16:41.171Z,75.46
2022-09-15T05:18:13.603Z,75.20
2022-09-15T05:19:46.803Z,75.05
2022-09-15T05:21:21.253Z,74.56
2022-09-15T05:22:53.636Z,74.44
2022-09-15T05:24:25.963Z,74.51
2022-09-15T05:25:59.731Z,74.45
2022-09-15T05:27:35.842Z,74.34
2022-09-15T05:29:08.224Z,74.71
2022-09-15T05:30:44.227Z,74.54
2022-09-15T05:32:16.613Z,74.80
2022-09-15T05:33:50.034Z,74.40
2022-09-15T05:35:24.016Z,74.00
2022-09-15T05:36:56.255Z,74.91
2022-09-15T05:38:32.516Z,74.54
2022-09-15T05:40:09.137Z,74.62
2022-09-15T05:41:41.772Z,74.02
2022-09-15T05:43:14.542Z,73.49
2022-09-15T05:44:46.984Z,72.73
2022-09-15T05:46:20.022Z,71.98
2022-09-15T05:47:52.445Z,68.42
2022-09-15T05:49:28.962Z,67.26
2022-09-15T05:51:01.507Z,65.31
2022-09-15T05:52:33.869Z,62.86
2022-09-15T05:54:06.973Z,62.67
2022-09-15T05:55:39.050Z,62.46
2022-09-15T05:57:11.417Z,62.19
2022-09-15T05:58:45.700Z,61.61
2022-09-15T06:00:19.492Z,60.93
2022-09-15T06:01:51.919Z,61.03
2022-09-15T06:05:10.785Z,59.70
2022-09-15T06:06:43.206Z,59.99
2022-09-15T06:08:15.415Z,60.10
2022-09-15T06:09:47.396Z,59.68
2022-09-15T06:11:21.036Z,59.35
2022-09-15T06:12:53.916Z,59.23
2022-09-15T06:14:26.090Z,58.78
2022-09-15T06:16:03.227Z,57.37
2022-09-15T06:17:35.759Z,58.03
2022-09-15T06:19:08.027Z,57.69
2022-09-15T06:20:40.721Z,56.42
2022-09-15T06:22:13.085Z,57.15
2022-09-15T06:23:50.062Z,56.37
2022-09-15T06:25:23.358Z,56.46
2022-09-15T06:26:55.664Z,55.32
2022-09-15T06:28:27.946Z,55.07
2022-09-15T06:30:00.372Z,54.84
2022-09-15T06:31:34.104Z,54.14
2022-09-15T06:33:06.302Z,54.51
2022-09-15T06:34:38.436Z,53.66
2022-09-15T06:36:15.252Z,53.87
2022-09-15T06:37:48.144Z,54.56
2022-09-15T06:39:20.349Z,54.73
2022-09-15T06:40:59.807Z,54.65
2022-09-15T06:42:32.336Z,55.13
2022-09-15T06:44:04.760Z,53.50
2022-09-15T06:45:37.210Z,54.63
2022-09-15T06:47:10.915Z,54.78
2022-09-15T06:50:18.528Z,52.78
2022-09-15T06:51:51.408Z,53.57
2022-09-15T06:53:23.792Z,53.40
2022-09-15T06:54:56.084Z,53.19
2022-09-15T06:56:28.737Z,52.71
2022-09-15T06:58:00.973Z,52.72
2022-09-15T06:59:33.267Z,52.24
2022-09-15T07:01:27.609Z,52.26
2022-09-15T07:02:59.769Z,52.35
2022-09-15T07:04:31.883Z,52.32
2022-09-15T07:06:05.228Z,52.65
2022-09-15T07:07:37.238Z,52.89
2022-09-15T07:09:11.910Z,52.39
2022-09-15T07:10:45.474Z,52.72
2022-09-15T07:12:18.026Z,53.10
2022-09-15T07:13:50.326Z,52.37
2022-09-15T07:15:25.310Z,52.64
2022-09-15T07:16:57.689Z,52.85
2022-09-15T07:18:31.307Z,53.11
2022-09-15T07:20:04.267Z,52.75
2022-09-15T07:21:36.666Z,50.29
2022-09-15T07:23:09.224Z,47.57
2022-09-15T07:24:41.650Z,44.75
2022-09-15T07:26:18.636Z,45.01
2022-09-15T07:27:50.977Z,44.10
2022-09-15T07:29:23.189Z,43.51
2022-09-15T07:30:55.562Z,42.79
2022-09-15T07:32:27.586Z,41.37
2022-09-15T07:35:32.687Z,40.79
2022-09-15T07:37:05.295Z,38.77
2022-09-15T07:38:42.761Z,38.26
2022-09-15T07:40:15.740Z,37.65
2022-09-15T07:41:48.077Z,35.51
2022-09-15T07:43:23.448Z,34.20
2022-09-15T07:44:55.963Z,34.74
2022-09-15T07:46:31.470Z,32.98
2022-09-15T07:48:04.332Z,32.48
2022-09-15T07:49:37.234Z,31.53
2022-09-15T07:51:09.520Z,31.69
2022-09-15T07:52:41.789Z,31.91
2022-09-15T07:54:16.295Z,30.97
2022-09-15T07:55:55.320Z,31.64
2022-09-15T07:57:27.861Z,31.58
2022-09-15T07:59:00.206Z,31.38
2022-09-15T08:00:32.487Z,31.30
2022-09-15T08:02:04.795Z,31.64
2022-09-15T08:03:39.963Z,31.20
2022-09-15T08:05:12.192Z,31.78
2022-09-15T08:06:44.492Z,31.06
2022-09-15T08:08:16.472Z,30.47
2022-09-15T08:09:48.562Z,30.16
2022-09-15T08:11:21.727Z,29.93
2022-09-15T08:12:54.406Z,29.88
2022-09-15T08:14:26.459Z,30.46
2022-09-15T08:16:05.817Z,30.20
2022-09-15T08:17:38.035Z,29.71
2022-09-15T08:19:10.008Z,29.48
2022-09-15T08:20:43.446Z,29.06
2022-09-15T08:22:15.577Z,28.63
2022-09-15T08:23:52.589Z,29.39
2022-09-15T08:25:25.005Z,29.58
2022-09-15T08:26:57.518Z,28.61
2022-09-15T08:28:31.961Z,28.03
2022-09-15T08:30:06.022Z,28.69
2022-09-15T08:31:38.191Z,28.22
2022-09-15T08:33:10.478Z,27.99
2022-09-15T08:34:42.775Z,28.43
2022-09-15T08:36:14.872Z,28.53
2022-09-15T08:37:47.923Z,28.69
2022-09-15T08:39:19.770Z,28.04
2022-09-15T08:41:01.753Z,27.46
2022-09-15T08:42:33.929Z,27.64
2022-09-15T08:44:23.365Z,27.30
2022-09-15T08:46:05.228Z,26.22
2022-09-15T08:47:46.164Z,25.93
2022-09-15T08:49:50.960Z,26.33
2022-09-15T08:51:38.379Z,26.02
2022-09-15T08:53:26.996Z,25.97
2022-09-15T08:55:04.453Z,26.01
2022-09-15T08:56:37.452Z,26.21
2022-09-15T08:58:12.321Z,26.09
2022-09-15T08:59:44.954Z,27.23
2022-09-15T09:01:36.121Z,27.16
2022-09-15T09:03:58.662Z,26.38
2022-09-15T09:06:14.531Z,26.25
2022-09-15T09:08:17.506Z,25.68
2022-09-15T09:10:07.959Z,25.93
2022-09-15T09:12:01.948Z,25.90
2022-09-15T09:13:46.006Z,25.76
2022-09-15T09:15:32.385Z,26.65
2022-09-15T09:17:32.238Z,25.64
2022-09-15T09:19:22.943Z,25.40
2022-09-15T09:21:11.466Z,25.44
2022-09-15T09:22:44.708Z,25.61
2022-09-15T09:25:50.422Z,24.59
2022-09-15T09:27:26.786Z,24.61
2022-09-15T09:29:00.820Z,24.81
2022-09-15T09:30:34.033Z,24.78
2022-09-15T09:32:27.748Z,25.11
2022-09-15T09:34:16.468Z,25.03
2022-09-15T09:35:53.101Z,24.39
2022-09-15T09:37:26.085Z,24.37
2022-09-15T09:38:59.178Z,23.77
2022-09-15T09:40:33.174Z,23.19
2022-09-15T09:42:06.893Z,22.73
2022-09-15T09:43:39.208Z,22.98
2022-09-15T09:45:18.986Z,23.22
2022-09-15T09:46:51.436Z,23.55
2022-09-15T09:48:25.921Z,22.10
2022-09-15T09:49:58.645Z,23.49
2022-09-15T09:51:32.125Z,22.25
2022-09-15T09:53:27.360Z,21.83
2022-09-15T09:55:03.806Z,22.47
2022-09-15T09:56:36.037Z,21.93
2022-09-15T09:58:19.684Z,21.86
2022-09-15T09:59:52.266Z,21.90
2022-09-15T10:01:26.325Z,22.01
2022-09-15T10:02:58.713Z,22.38
2022-09-15T10:04:31.000Z,22.01
2022-09-15T10:06:07.118Z,22.54
2022-09-15T10:07:44.071Z,22.51
2022-09-15T10:09:17.928Z,22.41
2022-09-15T10:10:52.113Z,22.25
2022-09-15T10:12:31.957Z,22.15
2022-09-15T10:14:03.980Z,22.34
2022-09-15T10:15:36.926Z,22.53
2022-09-15T10:17:11.588Z,22.19
2022-09-15T10:18:44.011Z,22.15
2022-09-15T10:20:33.041Z,22.13
2022-09-15T10:22:05.545Z,22.33
2022-09-15T10:23:37.750Z,22.46
2022-09-15T10:25:21.506Z,22.80
2022-09-15T10:27:07.509Z,22.69
2022-09-15T10:28:39.975Z,22.01
2022-09-15T10:30:15.262Z,21.85
2022-09-15T10:31:47.826Z,22.24
2022-09-15T10:33:27.971Z,22.42
2022-09-15T10:35:07.939Z,22.26
2022-09-15T10:36:40.244Z,22.40
2022-09-15T10:38:14.018Z,22.67
2022-09-15T10:39:52.423Z,23.06
2022-09-15T10:41:32.322Z,22.98
2022-09-15T10:43:48.800Z,22.22
2022-09-15T10:45:32.882Z,22.71
2022-09-15T10:47:28.610Z,22.12
2022-09-15T10:49:41.343Z,22.07
2022-09-15T10:51:22.334Z,22.24
2022-09-15T10:53:10.903Z,21.52
2022-09-15T10:54:55.037Z,21.35
2022-09-15T10:56:28.949Z,22.16
2022-09-15T10:58:16.035Z,22.51
2022-09-15T11:00:26.236Z,21.99
2022-09-15T11:03:49.647Z,22.26
2022-09-15T11:05:52.722Z,22.27
2022-09-15T11:07:40.208Z,22.55
2022-09-15T11:09:21.242Z,22.27
2022-09-15T11:11:02.096Z,22.96
2022-09-15T11:12:55.968Z,23.32
2022-09-15T11:14:49.279Z,23.61
2022-09-15T11:16:44.369Z,24.32
2022-09-15T11:18:50.553Z,23.70
2022-09-15T11:20:25.957Z,23.20
2022-09-15T11:22:25.335Z,24.79
2022-09-15T11:24:09.441Z,23.62
2022-09-15T11:25:45.528Z,23.90
2022-09-15T11:27:27.772Z,23.59
2022-09-15T11:29:24.967Z,24.98
2022-09-15T11:31:23.813Z,23.79
2022-09-15T11:33:18.853Z,24.20
2022-09-15T11:35:00.648Z,24.31
2022-09-15T11:38:29.250Z,24.08
2022-09-15T11:40:37.179Z,23.40
2022-09-15T11:42:14.218Z,23.39
2022-09-15T11:44:06.801Z,23.18
2022-09-15T11:45:46.131Z,24.10
2022-09-15T11:47:26.502Z,23.68
2022-09-15T11:49:05.216Z,23.89
2022-09-15T11:50:40.963Z,23.57
2022-09-15T11:52:28.113Z,23.29
2022-09-15T11:54:31.016Z,22.76
2022-09-15T11:56:24.060Z,23.23
2022-09-15T11:58:34.058Z,23.04
2022-09-15T12:00:12.055Z,22.82
2022-09-15T12:01:56.268Z,23.31
2022-09-15T12:03:53.166Z,22.75
2022-09-15T12:05:49.724Z,22.37
2022-09-15T12:09:01.273Z,23.66
2022-09-15T12:10:40.794Z,22.22
2022-09-15T12:12:16.044Z,22.16
2022-09-15T12:13:48.502Z,22.39
2022-09-15T12:15:27.807Z,22.18
2022-09-15T12:17:00.100Z,22.46
2022-09-15T12:18:40.148Z,22.00
2022-09-15T12:20:24.391Z,22.34
2022-09-15T12:21:59.503Z,23.06
2022-09-15T12:23:41.844Z,22.09
2022-09-15T12:26:02.012Z,23.19
2022-09-15T12:27:34.525Z,23.05
2022-09-15T12:29:26.696Z,22.26
2022-09-15T12:31:26.831Z,21.99
2022-09-15T12:32:59.329Z,22.20
2022-09-15T12:34:37.446Z,22.30
2022-09-15T12:36:34.885Z,22.35
2022-09-15T12:38:14.306Z,22.12
2022-09-15T12:39:47.864Z,22.26
2022-09-15T12:41:20.455Z,22.81
2022-09-15T12:42:52.945Z,21.88
2022-09-15T12:44:38.218Z,21.39
2022-09-15T12:46:18.731Z,22.08
2022-09-15T12:48:15.301Z,22.76
2022-09-15T12:49:49.384Z,21.59
2022-09-15T12:51:23.705Z,22.17
2022-09-15T12:52:59.807Z,22.49
2022-09-15T12:54:33.511Z,22.39
2022-09-15T12:56:08.855Z,22.46
2022-09-15T12:57:41.157Z,22.57
2022-09-15T12:59:15.449Z,22.08
2022-09-15T13:01:14.267Z,21.70
2022-09-15T13:02:46.864Z,21.03
2022-09-15T13:04:28.423Z,21.61
2022-09-15T13:06:22.670Z,22.20
2022-09-15T13:07:57.712Z,22.39
2022-09-15T13:09:30.305Z,22.38
2022-09-15T13:11:29.456Z,21.62
2022-09-15T13:13:28.747Z,20.97
2022-09-15T13:15:06.333Z,22.25
2022-09-15T13:16:41.682Z,22.82
2022-09-15T13:18:15.419Z,22.20
2022-09-15T13:19:49.686Z,22.06
2022-09-15T13:21:24.499Z,22.02
2022-09-15T13:22:59.470Z,21.81
2022-09-15T13:25:00.769Z,22.55
2022-09-15T13:26:34.980Z,22.15
2022-09-15T13:29:54.102Z,23.26
2022-09-15T13:31:35.340Z,22.90
2022-09-15T13:33:26.213Z,22.73
2022-09-15T13:35:36.752Z,22.08
2022-09-15T13:39:36.339Z,22.15
2022-09-15T13:43:05.739Z,22.65
2022-09-15T13:45:05.952Z,22.12
2022-09-15T13:47:10.376Z,22.95
2022-09-15T13:49:09.825Z,23.72
2022-09-15T13:50:46.368Z,22.80
2022-09-15T13:52:22.846Z,23.07
2022-09-15T13:53:56.887Z,22.91
2022-09-15T13:55:33.516Z,23.34
2022-09-15T13:57:05.841Z,23.50
2022-09-15T13:59:00.972Z,23.19
2022-09-15T14:00:55.659Z,23.12
2022-09-15T14:02:29.217Z,23.24
2022-09-15T14:04:14.932Z,23.70
2022-09-15T14:05:47.468Z,22.53
2022-09-15T14:07:23.922Z,23.72
2022-09-15T14:08:59.069Z,22.73
2022-09-15T14:10:35.664Z,22.50
2022-09-15T14:12:12.983Z,22.47
2022-09-15T14:13:49.976Z,21.79
2022-09-15T14:24:36.043Z,22.23
2022-09-15T14:26:14.193Z,23.01
2022-09-15T14:27:49.091Z,23.59
2022-09-15T14:29:24.971Z,23.48
2022-09-15T14:30:57.305Z,23.79
2022-09-15T14:32:32.003Z,23.55
2022-09-15T14:34:07.280Z,23.56
2022-09-15T14:35:42.415Z,23.47
2022-09-15T14:37:24.465Z,24.65
2022-09-15T14:39:12.218Z,25.00
2022-09-15T14:40:44.572Z,24.68
2022-09-15T14:42:23.079Z,25.02
2022-09-15T14:43:55.371Z,25.54
2022-09-15T14:47:34.982Z,24.42
2022-09-15T14:49:14.979Z,23.68
2022-09-15T14:50:58.986Z,24.15
2022-09-15T14:52:33.985Z,24.16
2022-09-15T14:54:07.210Z,23.59
2022-09-15T14:55:52.643Z,23.69
2022-09-15T14:57:30.853Z,24.19
2022-09-15T14:59:07.223Z,23.34
2022-09-15T15:00:56.132Z,22.95
2022-09-15T15:02:46.113Z,23.51
2022-09-15T15:04:33.797Z,23.24
2022-09-15T15:06:30.009Z,23.86
2022-09-15T15:08:05.180Z,23.83
2022-09-15T15:09:42.318Z,23.87
2022-09-15T15:11:16.582Z,23.89
2022-09-15T15:12:52.454Z,24.38
2022-09-15T15:14:24.891Z,24.72
2022-09-15T15:15:57.541Z,24.47
2022-09-15T15:17:56.316Z,24.82
2022-09-15T15:19:38.173Z,24.41
2022-09-15T15:21:44.482Z,24.92
2022-09-15T15:23:23.849Z,25.58
2022-09-15T15:24:56.771Z,25.72
2022-09-15T15:26:38.570Z,26.08
2022-09-15T15:28:32.999Z,26.23
2022-09-15T15:30:31.231Z,26.99
2022-09-15T15:32:11.586Z,30.06
2022-09-15T15:33:59.773Z,31.89
2022-09-15T15:35:33.747Z,32.18
2022-09-15T15:37:15.023Z,31.81
2022-09-15T15:38:51.730Z,32.29
2022-09-15T15:40:24.115Z,32.29
2022-09-15T15:42:05.389Z,32.15
2022-09-15T15:43:38.116Z,32.30
2022-09-15T15:45:10.457Z,33.43
2022-09-15T15:46:59.106Z,33.40
2022-09-15T15:48:37.360Z,35.37
2022-09-15T15:50:13.916Z,36.28
2022-09-15T15:51:47.115Z,35.44
2022-09-15T15:53:19.414Z,34.31
2022-09-15T15:54:51.838Z,33.36
2022-09-15T15:56:26.077Z,33.06
2022-09-15T15:57:59.075Z,32.83
2022-09-15T15:59:33.894Z,32.69
2022-09-15T16:01:06.512Z,32.66
2022-09-15T16:02:38.810Z,33.34
2022-09-15T16:04:12.726Z,33.78
2022-09-15T16:05:47.045Z,34.99
2022-09-15T16:07:21.325Z,35.65
2022-09-15T16:08:54.064Z,38.75
2022-09-15T16:10:30.445Z,40.42
2022-09-15T16:12:02.887Z,40.87
2022-09-15T16:13:35.424Z,41.51
2022-09-15T16:15:15.232Z,42.43
2022-09-15T16:16:47.528Z,42.37
2022-09-15T16:18:19.923Z,41.83
2022-09-15T16:19:52.264Z,42.58
2022-09-15T16:21:38.858Z,43.73
2022-09-15T16:23:15.222Z,44.19
2022-09-15T16:24:48.055Z,44.48
2022-09-15T16:26:23.605Z,44.07
2022-09-15T16:27:56.016Z,44.14
2022-09-15T16:29:36.555Z,45.72
2022-09-15T16:31:13.834Z,45.25
2022-09-15T16:32:46.151Z,45.73
2022-09-15T16:34:18.615Z,46.27
2022-09-15T16:35:55.670Z,47.22
2022-09-15T16:37:28.008Z,48.17
2022-09-15T16:39:00.245Z,50.26
2022-09-15T16:40:32.373Z,49.79
2022-09-15T16:42:05.142Z,49.36
2022-09-15T16:43:37.460Z,48.55
2022-09-15T16:45:19.994Z,48.70
2022-09-15T16:46:52.559Z,47.88
2022-09-15T16:48:25.081Z,47.88
2022-09-15T16:49:57.324Z,47.94
2022-09-15T16:51:31.676Z,48.20
2022-09-15T16:53:04.846Z,48.23
2022-09-15T16:54:37.070Z,48.55
2022-09-15T16:56:13.005Z,49.49
2022-09-15T16:57:45.584Z,49.65
2022-09-15T16:59:18.418Z,49.40
2022-09-15T17:00:53.253Z,48.74
2022-09-15T17:02:25.792Z,49.03
2022-09-15T17:03:58.413Z,49.42
2022-09-15T17:05:37.638Z,49.69
2022-09-15T17:07:09.908Z,49.53
2022-09-15T17:08:42.516Z,49.36
2022-09-15T17:10:15.039Z,49.99
2022-09-15T17:11:47.405Z,52.51
2022-09-15T17:14:57.413Z,51.19
2022-09-15T17:16:30.928Z,50.60
2022-09-15T17:18:03.963Z,50.74
2022-09-15T17:19:36.183Z,51.00
2022-09-15T17:21:11.452Z,50.62
2022-09-15T17:22:43.855Z,50.12
2022-09-15T17:24:17.858Z,50.38
2022-09-15T17:25:57.710Z,50.84
2022-09-15T17:27:30.251Z,50.42
2022-09-15T17:29:02.293Z,51.00
2022-09-15T17:30:36.246Z,50.28
2022-09-15T17:32:09.494Z,51.24
2022-09-15T17:33:42.522Z,51.10
2022-09-15T17:35:20.905Z,51.93
2022-09-15T17:36:53.120Z,52.15
2022-09-15T17:38:26.114Z,52.18
2022-09-15T17:39:59.184Z,52.91
2022-09-15T17:41:31.423Z,53.77
2022-09-15T17:43:03.933Z,53.50
2022-09-15T17:44:37.760Z,53.55
2022-09-15T17:46:10.196Z,52.76
2022-09-15T17:47:42.487Z,53.28
2022-09-15T17:49:14.885Z,54.61
2022-09-15T17:50:49.104Z,54.73
2022-09-15T17:52:21.405Z,55.11
2022-09-15T17:53:55.295Z,55.04
2022-09-15T17:55:34.832Z,55.60
2022-09-15T17:57:07.085Z,55.16
2022-09-15T17:58:40.249Z,55.50
2022-09-15T18:00:15.670Z,55.25
2022-09-15T18:01:48.766Z,56.70
2022-09-15T18:03:25.455Z,56.14
2022-09-15T18:04:57.925Z,55.03
2022-09-15T18:06:30.211Z,55.61
2022-09-15T18:08:05.429Z,55.61
2022-09-15T18:09:37.683Z,55.94
2022-09-15T18:11:11.909Z,57.02
2022-09-15T18:12:53.614Z,58.01
2022-09-15T18:14:28.014Z,58.87
2022-09-15T18:16:05.581Z,58.98
2022-09-15T18:17:37.964Z,58.68
2022-09-15T18:19:10.759Z,58.96
2022-09-15T18:20:43.218Z,59.54
2022-09-15T18:22:15.589Z,59.88
2022-09-15T18:23:47.910Z,59.17
2022-09-15T18:25:26.027Z,58.94
2022-09-15T18:26:58.342Z,59.59
2022-09-15T18:28:32.687Z,59.69
2022-09-15T18:30:05.305Z,59.47
2022-09-15T18:31:37.293Z,59.62
2022-09-15T18:33:20.972Z,59.30
2022-09-15T18:34:53.089Z,59.29
2022-09-15T18:36:25.414Z,59.60
2022-09-15T18:37:59.152Z,59.27
2022-09-15T18:39:31.580Z,58.38
2022-09-15T18:41:09.066Z,58.12
2022-09-15T18:42:45.268Z,57.59
2022-09-15T18:44:17.870Z,57.71
2022-09-15T18:45:50.675Z,57.93
2022-09-15T18:47:22.938Z,57.66
2022-09-15T18:48:55.314Z,57.97
2022-09-15T18:50:27.992Z,58.21
2022-09-15T18:52:02.272Z,57.90
2022-09-15T18:53:36.846Z,57.92
2022-09-15T18:55:13.046Z,58.68
2022-09-15T18:56:45.494Z,58.17
2022-09-15T18:58:19.534Z,57.95
2022-09-15T18:59:52.031Z,58.14
2022-09-15T19:01:27.315Z,58.64
2022-09-15T19:03:03.325Z,58.66
2022-09-15T19:04:40.429Z,58.90
2022-09-15T19:06:15.472Z,59.04
2022-09-15T19:07:47.922Z,58.50
2022-09-15T19:09:20.227Z,58.02
2022-09-15T19:10:59.649Z,58.08
2022-09-15T19:14:04.912Z,58.25
2022-09-15T19:15:37.380Z,57.87
2022-09-15T19:17:09.702Z,57.59
2022-09-15T19:18:42.065Z,57.58
2022-09-15T19:20:16.165Z,56.61
2022-09-15T19:21:48.576Z,57.02
2022-09-15T19:23:20.886Z,57.63
2022-09-15T19:24:53.403Z,57.62
2022-09-15T19:26:29.213Z,57.84
2022-09-15T19:28:01.530Z,57.80
2022-09-15T19:29:36.105Z,58.02
2022-09-15T19:31:09.189Z,58.02
2022-09-15T19:32:41.528Z,57.65
2022-09-15T19:34:13.788Z,57.45
2022-09-15T19:35:46.551Z,57.91
2022-09-15T19:37:21.332Z,57.74
2022-09-15T19:38:53.807Z,57.13
2022-09-15T19:40:26.323Z,57.70
2022-09-15T19:41:58.781Z,58.71
2022-09-15T19:43:30.874Z,57.79
2022-09-15T19:45:03.289Z,56.42
2022-09-15T19:46:35.648Z,55.66
2022-09-15T19:48:08.039Z,55.92
2022-09-15T19:49:40.732Z,54.71
2022-09-15T19:51:14.828Z,54.25
2022-09-15T19:52:47.182Z,54.72
2022-09-15T19:54:20.034Z,53.96
2022-09-15T19:55:52.889Z,52.88
2022-09-15T19:57:25.219Z,52.52
2022-09-15T19:58:58.946Z,52.12
2022-09-15T20:00:31.170Z,52.05
2022-09-15T20:02:03.703Z,51.09
2022-09-15T20:03:35.833Z,51.17
2022-09-15T20:05:08.905Z,53.35
2022-09-15T20:06:41.248Z,53.84
2022-09-15T20:08:13.597Z,53.73
2022-09-15T20:09:47.898Z,54.40
2022-09-15T20:11:20.424Z,55.23
2022-09-15T20:12:52.546Z,56.04
2022-09-15T20:14:24.925Z,56.36
2022-09-15T20:16:02.706Z,55.89
2022-09-15T20:17:34.870Z,55.76
2022-09-15T20:19:07.659Z,56.07
2022-09-15T20:20:40.689Z,56.17
2022-09-15T20:22:13.108Z,56.06
2022-09-15T20:23:45.938Z,56.74
2022-09-15T20:25:18.245Z,57.17
2022-09-15T20:26:51.254Z,57.28
2022-09-15T20:28:25.380Z,56.89
2022-09-15T20:29:57.693Z,57.06
2022-09-15T20:31:33.357Z,57.15
2022-09-15T20:33:05.395Z,57.05
2022-09-15T20:34:37.405Z,57.53
2022-09-15T20:36:23.666Z,57.86
2022-09-15T20:37:55.905Z,58.35
2022-09-15T20:39:27.942Z,59.12
2022-09-15T20:41:00.693Z,59.17
2022-09-15T20:42:32.740Z,59.24
2022-09-15T20:44:06.326Z,59.05
2022-09-15T20:45:38.415Z,59.22
2022-09-15T20:47:10.537Z,59.07
2022-09-15T20:48:42.823Z,60.42
2022-09-15T20:50:15.219Z,61.15
2022-09-15T20:51:47.242Z,62.10
2022-09-15T20:53:19.356Z,62.90
2022-09-15T20:54:51.332Z,63.21
2022-09-15T20:56:25.864Z,63.45
2022-09-15T20:57:57.888Z,62.88
2022-09-15T20:59:30.020Z,62.55
2022-09-15T21:01:07.634Z,62.56
2022-09-15T21:02:42.633Z,62.83
2022-09-15T21:04:15.549Z,62.81
2022-09-15T21:05:48.336Z,62.73
2022-09-15T21:07:20.366Z,62.69
2022-09-15T21:08:53.566Z,63.01
2022-09-15T21:10:26.518Z,63.33
2022-09-15T21:11:58.646Z,63.84
2022-09-15T21:13:32.205Z,63.76
2022-09-15T21:15:04.757Z,63.77
2022-09-15T21:16:36.926Z,64.06
2022-09-15T21:18:09.039Z,64.01
2022-09-15T21:19:41.051Z,64.08
2022-09-15T21:21:14.903Z,65.26
2022-09-15T21:22:47.190Z,65.74
2022-09-15T21:24:19.200Z,65.19